Terminal Aerodrome Forecast
Issued by NWS

Home | Current Version | Previous Version | Text Only | Print | Product List | Glossary On
Versions: 1 2 3 4 5 6 7 8 9 10 11 12 13 14
009
FTUS46 KSEW 231915 AAA
TAFOLM
TAF AMD
KOLM 231915Z 2319/2418 VRB06KT P6SM SCT018 BKN250
     FM240000 29006KT P6SM SCT030 BKN250
     FM240400 21006KT P6SM SCT250
     FM241000 21006KT P6SM OVC013=

USA.gov is the U.S. government's official web portal to all federal, state and local government web resources and services.